sensor_id;sensor_type;location;lat;lon;timestamp;pressure;altitude;pressure_sealevel;temperature;humidity
39954;BME280;25631;51.516;-0.470;2023-04-26T00:00:52;101737.77;;;8.26;29.31
39954;BME280;25631;51.516;-0.470;2023-04-26T00:03:28;101736.32;;;8.56;29.28
39954;BME280;25631;51.516;-0.470;2023-04-26T00:06:05;101728.66;;;8.66;29.31
39954;BME280;25631;51.516;-0.470;2023-04-26T00:08:41;101722.45;;;8.41;29.39
39954;BME280;25631;51.516;-0.470;2023-04-26T00:11:18;101720.58;;;8.43;29.42
39954;BME280;25631;51.516;-0.470;2023-04-26T00:13:54;101717.05;;;8.18;29.42
39954;BME280;25631;51.516;-0.470;2023-04-26T00:16:33;101713.46;;;8.24;29.44
39954;BME280;25631;51.516;-0.470;2023-04-26T00:19:09;101704.62;;;8.22;29.47
39954;BME280;25631;51.516;-0.470;2023-04-26T00:21:46;101701.83;;;8.48;29.53
39954;BME280;25631;51.516;-0.470;2023-04-26T00:24:22;101695.67;;;8.22;29.61
39954;BME280;25631;51.516;-0.470;2023-04-26T00:26:58;101696.01;;;8.23;29.76
39954;BME280;25631;51.516;-0.470;2023-04-26T00:29:35;101698.75;;;8.17;29.87
39954;BME280;25631;51.516;-0.470;2023-04-26T00:32:12;101700.06;;;8.13;29.90
39954;BME280;25631;51.516;-0.470;2023-04-26T00:34:50;101702.53;;;8.33;29.84
39954;BME280;25631;51.516;-0.470;2023-04-26T00:37:26;101701.48;;;8.20;29.85
39954;BME280;25631;51.516;-0.470;2023-04-26T00:40:03;101697.88;;;8.23;29.93
39954;BME280;25631;51.516;-0.470;2023-04-26T00:42:40;101698.67;;;7.96;29.99
39954;BME280;25631;51.516;-0.470;2023-04-26T00:45:16;101700.36;;;8.07;30.08
39954;BME280;25631;51.516;-0.470;2023-04-26T00:47:53;101700.43;;;7.97;30.19
39954;BME280;25631;51.516;-0.470;2023-04-26T00:50:30;101698.72;;;7.88;30.28
39954;BME280;25631;51.516;-0.470;2023-04-26T00:53:09;101693.70;;;7.90;30.35
39954;BME280;25631;51.516;-0.470;2023-04-26T00:55:51;101692.42;;;7.71;30.47
39954;BME280;25631;51.516;-0.470;2023-04-26T00:58:28;101700.15;;;7.88;30.49
39954;BME280;25631;51.516;-0.470;2023-04-26T01:01:05;101702.62;;;7.87;30.59
39954;BME280;25631;51.516;-0.470;2023-04-26T01:03:41;101702.90;;;7.50;30.74
39954;BME280;25631;51.516;-0.470;2023-04-26T01:06:18;101698.69;;;7.61;30.85
39954;BME280;25631;51.516;-0.470;2023-04-26T01:08:56;101692.44;;;7.50;30.85
39954;BME280;25631;51.516;-0.470;2023-04-26T01:11:34;101683.39;;;7.80;30.84
39954;BME280;25631;51.516;-0.470;2023-04-26T01:14:11;101678.50;;;7.54;30.84
39954;BME280;25631;51.516;-0.470;2023-04-26T01:16:49;101673.98;;;7.60;30.85
39954;BME280;25631;51.516;-0.470;2023-04-26T01:19:26;101673.60;;;7.36;30.98
39954;BME280;25631;51.516;-0.470;2023-04-26T01:22:02;101671.74;;;7.58;31.01
39954;BME280;25631;51.516;-0.470;2023-04-26T01:24:40;101667.33;;;7.49;31.02
39954;BME280;25631;51.516;-0.470;2023-04-26T01:27:18;101670.74;;;7.74;31.04
39954;BME280;25631;51.516;-0.470;2023-04-26T01:29:54;101672.94;;;7.77;30.97
39954;BME280;25631;51.516;-0.470;2023-04-26T01:32:31;101669.11;;;7.71;30.89
39954;BME280;25631;51.516;-0.470;2023-04-26T01:35:08;101667.92;;;7.50;30.91
39954;BME280;25631;51.516;-0.470;2023-04-26T01:37:44;101662.44;;;7.48;30.89
39954;BME280;25631;51.516;-0.470;2023-04-26T01:40:21;101655.35;;;7.69;31.01
39954;BME280;25631;51.516;-0.470;2023-04-26T01:42:57;101658.62;;;7.32;31.02
39954;BME280;25631;51.516;-0.470;2023-04-26T01:45:34;101654.69;;;7.39;31.12
39954;BME280;25631;51.516;-0.470;2023-04-26T01:48:10;101655.13;;;7.43;31.18
39954;BME280;25631;51.516;-0.470;2023-04-26T01:50:46;101651.55;;;7.34;31.24
39954;BME280;25631;51.516;-0.470;2023-04-26T01:53:24;101656.43;;;7.48;31.33
39954;BME280;25631;51.516;-0.470;2023-04-26T01:56:00;101658.44;;;7.66;31.41
39954;BME280;25631;51.516;-0.470;2023-04-26T01:58:36;101654.55;;;7.73;31.51
39954;BME280;25631;51.516;-0.470;2023-04-26T02:01:13;101654.75;;;7.84;31.56
39954;BME280;25631;51.516;-0.470;2023-04-26T02:03:49;101654.53;;;7.20;31.56
39954;BME280;25631;51.516;-0.470;2023-04-26T02:06:25;101658.08;;;7.55;31.52
39954;BME280;25631;51.516;-0.470;2023-04-26T02:09:02;101654.32;;;7.34;31.57
39954;BME280;25631;51.516;-0.470;2023-04-26T02:11:38;101641.15;;;7.50;31.57
39954;BME280;25631;51.516;-0.470;2023-04-26T02:14:15;101639.62;;;7.33;31.61
39954;BME280;25631;51.516;-0.470;2023-04-26T02:16:51;101652.58;;;7.30;31.62
39954;BME280;25631;51.516;-0.470;2023-04-26T02:19:29;101660.80;;;7.06;31.69
39954;BME280;25631;51.516;-0.470;2023-04-26T02:22:06;101660.87;;;7.46;31.68
39954;BME280;25631;51.516;-0.470;2023-04-26T02:24:43;101667.86;;;7.22;31.79
39954;BME280;25631;51.516;-0.470;2023-04-26T02:27:19;101673.27;;;7.35;31.92
39954;BME280;25631;51.516;-0.470;2023-04-26T02:29:56;101675.41;;;7.36;31.96
39954;BME280;25631;51.516;-0.470;2023-04-26T02:32:32;101672.65;;;7.26;31.96
39954;BME280;25631;51.516;-0.470;2023-04-26T02:35:09;101661.97;;;7.32;31.88
39954;BME280;25631;51.516;-0.470;2023-04-26T02:37:46;101653.29;;;7.44;31.84
39954;BME280;25631;51.516;-0.470;2023-04-26T02:40:22;101646.61;;;7.35;31.90
39954;BME280;25631;51.516;-0.470;2023-04-26T02:42:59;101643.52;;;7.52;31.95
39954;BME280;25631;51.516;-0.470;2023-04-26T02:45:40;101651.48;;;7.35;32.03
39954;BME280;25631;51.516;-0.470;2023-04-26T02:48:16;101653.08;;;7.07;32.11
39954;BME280;25631;51.516;-0.470;2023-04-26T02:50:53;101649.57;;;7.04;32.17
39954;BME280;25631;51.516;-0.470;2023-04-26T02:53:29;101649.40;;;7.36;32.16
39954;BME280;25631;51.516;-0.470;2023-04-26T02:56:06;101647.12;;;7.38;32.19
39954;BME280;25631;51.516;-0.470;2023-04-26T02:58:42;101642.81;;;7.43;32.22
39954;BME280;25631;51.516;-0.470;2023-04-26T03:01:19;101646.53;;;7.41;32.29
39954;BME280;25631;51.516;-0.470;2023-04-26T03:03:55;101648.53;;;7.12;32.31
39954;BME280;25631;51.516;-0.470;2023-04-26T03:06:32;101647.42;;;7.20;32.22
39954;BME280;25631;51.516;-0.470;2023-04-26T03:09:08;101648.12;;;7.38;32.17
39954;BME280;25631;51.516;-0.470;2023-04-26T03:11:44;101647.50;;;7.43;32.14
39954;BME280;25631;51.516;-0.470;2023-04-26T03:14:21;101643.76;;;7.28;32.16
39954;BME280;25631;51.516;-0.470;2023-04-26T03:16:57;101643.67;;;7.60;32.33
39954;BME280;25631;51.516;-0.470;2023-04-26T03:19:34;101645.88;;;7.24;32.42
39954;BME280;25631;51.516;-0.470;2023-04-26T03:22:10;101642.86;;;7.06;32.38
39954;BME280;25631;51.516;-0.470;2023-04-26T03:24:48;101642.51;;;7.08;32.42
39954;BME280;25631;51.516;-0.470;2023-04-26T03:27:24;101641.40;;;7.34;32.40
39954;BME280;25631;51.516;-0.470;2023-04-26T03:30:01;101638.34;;;7.29;32.29
39954;BME280;25631;51.516;-0.470;2023-04-26T03:32:37;101635.74;;;7.20;32.24
39954;BME280;25631;51.516;-0.470;2023-04-26T03:35:14;101638.06;;;7.10;32.20
39954;BME280;25631;51.516;-0.470;2023-04-26T03:37:50;101639.82;;;7.19;32.16
39954;BME280;25631;51.516;-0.470;2023-04-26T03:40:35;101642.53;;;7.33;32.18
39954;BME280;25631;51.516;-0.470;2023-04-26T03:43:11;101640.06;;;7.30;32.19
39954;BME280;25631;51.516;-0.470;2023-04-26T03:45:48;101636.65;;;7.46;32.16
39954;BME280;25631;51.516;-0.470;2023-04-26T03:48:25;101627.84;;;7.14;32.14
39954;BME280;25631;51.516;-0.470;2023-04-26T03:51:02;101634.34;;;7.11;32.14
39954;BME280;25631;51.516;-0.470;2023-04-26T03:53:39;101637.13;;;7.26;32.23
39954;BME280;25631;51.516;-0.470;2023-04-26T03:56:17;101627.08;;;7.16;32.30
39954;BME280;25631;51.516;-0.470;2023-04-26T03:58:56;101622.46;;;7.32;32.33
39954;BME280;25631;51.516;-0.470;2023-04-26T04:01:33;101624.38;;;7.41;32.38
39954;BME280;25631;51.516;-0.470;2023-04-26T04:04:09;101620.00;;;7.09;32.39
39954;BME280;25631;51.516;-0.470;2023-04-26T04:06:46;101613.86;;;7.16;32.38
39954;BME280;25631;51.516;-0.470;2023-04-26T04:09:22;101611.89;;;7.17;32.44
39954;BME280;25631;51.516;-0.470;2023-04-26T04:11:59;101611.12;;;7.22;32.52
39954;BME280;25631;51.516;-0.470;2023-04-26T04:14:35;101604.01;;;7.23;32.53
39954;BME280;25631;51.516;-0.470;2023-04-26T04:17:12;101603.46;;;7.18;32.59
39954;BME280;25631;51.516;-0.470;2023-04-26T04:19:49;101599.75;;;7.01;32.64
39954;BME280;25631;51.516;-0.470;2023-04-26T04:22:25;101597.37;;;7.25;32.68
39954;BME280;25631;51.516;-0.470;2023-04-26T04:25:02;101600.10;;;6.98;32.70
39954;BME280;25631;51.516;-0.470;2023-04-26T04:27:39;101599.30;;;7.33;32.67
39954;BME280;25631;51.516;-0.470;2023-04-26T04:30:15;101599.07;;;7.21;32.70
39954;BME280;25631;51.516;-0.470;2023-04-26T04:32:52;101598.50;;;7.06;32.68
39954;BME280;25631;51.516;-0.470;2023-04-26T04:35:29;101592.54;;;7.21;32.62
39954;BME280;25631;51.516;-0.470;2023-04-26T04:38:06;101588.94;;;7.01;32.60
39954;BME280;25631;51.516;-0.470;2023-04-26T04:40:42;101593.12;;;7.29;32.59
39954;BME280;25631;51.516;-0.470;2023-04-26T04:43:19;101593.74;;;7.31;32.58
39954;BME280;25631;51.516;-0.470;2023-04-26T04:45:55;101591.14;;;7.02;32.56
39954;BME280;25631;51.516;-0.470;2023-04-26T04:48:32;101592.60;;;7.10;32.58
39954;BME280;25631;51.516;-0.470;2023-04-26T04:51:09;101594.71;;;7.19;32.61
39954;BME280;25631;51.516;-0.470;2023-04-26T04:53:45;101595.38;;;7.14;32.66
39954;BME280;25631;51.516;-0.470;2023-04-26T04:56:22;101597.46;;;7.24;32.68
39954;BME280;25631;51.516;-0.470;2023-04-26T04:58:58;101596.11;;;7.31;32.73
39954;BME280;25631;51.516;-0.470;2023-04-26T05:01:35;101599.06;;;7.36;32.71
39954;BME280;25631;51.516;-0.470;2023-04-26T05:04:11;101597.63;;;7.36;32.72
39954;BME280;25631;51.516;-0.470;2023-04-26T05:06:48;101597.14;;;7.25;32.74
39954;BME280;25631;51.516;-0.470;2023-04-26T05:09:24;101596.37;;;7.21;32.88
39954;BME280;25631;51.516;-0.470;2023-04-26T05:12:01;101595.16;;;7.14;32.88
39954;BME280;25631;51.516;-0.470;2023-04-26T05:14:37;101592.91;;;7.30;32.82
39954;BME280;25631;51.516;-0.470;2023-04-26T05:17:14;101593.41;;;6.74;32.64
39954;BME280;25631;51.516;-0.470;2023-04-26T05:19:50;101597.78;;;7.20;32.48
39954;BME280;25631;51.516;-0.470;2023-04-26T05:22:27;101599.56;;;7.42;32.46
39954;BME280;25631;51.516;-0.470;2023-04-26T05:25:05;101602.64;;;6.83;32.54
39954;BME280;25631;51.516;-0.470;2023-04-26T05:27:41;101601.78;;;7.40;32.56
39954;BME280;25631;51.516;-0.470;2023-04-26T05:30:18;101604.75;;;7.06;32.63
39954;BME280;25631;51.516;-0.470;2023-04-26T05:32:54;101610.51;;;6.90;32.63
39954;BME280;25631;51.516;-0.470;2023-04-26T05:35:30;101610.86;;;7.50;32.72
39954;BME280;25631;51.516;-0.470;2023-04-26T05:38:07;101612.40;;;7.37;32.89
39954;BME280;25631;51.516;-0.470;2023-04-26T05:40:44;101612.02;;;7.18;32.96
39954;BME280;25631;51.516;-0.470;2023-04-26T05:43:20;101610.43;;;7.22;33.07
39954;BME280;25631;51.516;-0.470;2023-04-26T05:45:57;101606.30;;;7.13;33.08
39954;BME280;25631;51.516;-0.470;2023-04-26T05:48:33;101605.57;;;7.50;33.07
39954;BME280;25631;51.516;-0.470;2023-04-26T05:51:10;101604.78;;;7.15;32.95
39954;BME280;25631;51.516;-0.470;2023-04-26T05:53:46;101601.40;;;7.29;32.92
39954;BME280;25631;51.516;-0.470;2023-04-26T05:56:23;101600.00;;;7.46;32.81
39954;BME280;25631;51.516;-0.470;2023-04-26T05:58:59;101603.13;;;7.18;32.87
39954;BME280;25631;51.516;-0.470;2023-04-26T06:01:36;101602.77;;;7.41;32.93
39954;BME280;25631;51.516;-0.470;2023-04-26T06:04:12;101610.26;;;7.53;32.78
39954;BME280;25631;51.516;-0.470;2023-04-26T06:06:49;101613.42;;;7.62;32.64
39954;BME280;25631;51.516;-0.470;2023-04-26T06:09:26;101613.83;;;7.41;32.75
39954;BME280;25631;51.516;-0.470;2023-04-26T06:12:02;101613.21;;;7.36;32.71
39954;BME280;25631;51.516;-0.470;2023-04-26T06:14:39;101616.53;;;7.29;32.65
39954;BME280;25631;51.516;-0.470;2023-04-26T06:17:15;101617.93;;;6.98;32.58
39954;BME280;25631;51.516;-0.470;2023-04-26T06:19:52;101613.06;;;7.47;32.54
39954;BME280;25631;51.516;-0.470;2023-04-26T06:22:28;101615.67;;;7.42;32.38
39954;BME280;25631;51.516;-0.470;2023-04-26T06:25:06;101615.85;;;7.51;32.32
39954;BME280;25631;51.516;-0.470;2023-04-26T06:27:43;101619.13;;;7.40;32.33
39954;BME280;25631;51.516;-0.470;2023-04-26T06:30:20;101621.78;;;7.40;32.31
39954;BME280;25631;51.516;-0.470;2023-04-26T06:32:56;101619.22;;;7.32;32.30
39954;BME280;25631;51.516;-0.470;2023-04-26T06:35:38;101616.67;;;7.57;32.20
39954;BME280;25631;51.516;-0.470;2023-04-26T06:38:14;101614.29;;;7.81;32.16
39954;BME280;25631;51.516;-0.470;2023-04-26T06:40:51;101612.26;;;7.37;32.07
39954;BME280;25631;51.516;-0.470;2023-04-26T06:43:27;101611.83;;;7.50;32.15
39954;BME280;25631;51.516;-0.470;2023-04-26T06:46:04;101614.26;;;7.39;32.12
39954;BME280;25631;51.516;-0.470;2023-04-26T06:48:40;101612.55;;;7.29;31.99
39954;BME280;25631;51.516;-0.470;2023-04-26T06:51:17;101608.29;;;7.63;31.74
39954;BME280;25631;51.516;-0.470;2023-04-26T06:53:53;101608.67;;;7.83;31.70
39954;BME280;25631;51.516;-0.470;2023-04-26T06:56:30;101608.21;;;7.85;31.52
39954;BME280;25631;51.516;-0.470;2023-04-26T06:59:06;101613.72;;;7.98;31.46
39954;BME280;25631;51.516;-0.470;2023-04-26T07:01:43;101608.77;;;7.53;31.26
39954;BME280;25631;51.516;-0.470;2023-04-26T07:04:19;101610.28;;;7.43;31.17
39954;BME280;25631;51.516;-0.470;2023-04-26T07:06:56;101606.81;;;7.76;31.17
39954;BME280;25631;51.516;-0.470;2023-04-26T07:09:32;101599.21;;;7.51;31.27
39954;BME280;25631;51.516;-0.470;2023-04-26T07:12:10;101596.94;;;7.57;31.34
39954;BME280;25631;51.516;-0.470;2023-04-26T07:14:47;101595.09;;;7.74;31.16
39954;BME280;25631;51.516;-0.470;2023-04-26T07:17:23;101595.96;;;7.74;30.86
39954;BME280;25631;51.516;-0.470;2023-04-26T07:20:00;101596.17;;;7.84;30.99
39954;BME280;25631;51.516;-0.470;2023-04-26T07:22:37;101595.70;;;7.77;30.94
39954;BME280;25631;51.516;-0.470;2023-04-26T07:25:13;101596.08;;;7.55;30.79
39954;BME280;25631;51.516;-0.470;2023-04-26T07:27:50;101595.82;;;7.89;30.87
39954;BME280;25631;51.516;-0.470;2023-04-26T07:30:26;101593.83;;;8.15;30.19
39954;BME280;25631;51.516;-0.470;2023-04-26T07:33:03;101594.06;;;8.00;29.69
39954;BME280;25631;51.516;-0.470;2023-04-26T07:35:39;101592.00;;;7.55;29.60
39954;BME280;25631;51.516;-0.470;2023-04-26T07:38:16;101599.38;;;7.80;29.60
39954;BME280;25631;51.516;-0.470;2023-04-26T07:40:52;101596.31;;;7.97;29.33
39954;BME280;25631;51.516;-0.470;2023-04-26T07:43:29;101596.36;;;7.82;29.38
39954;BME280;25631;51.516;-0.470;2023-04-26T07:46:05;101592.87;;;7.78;29.10
39954;BME280;25631;51.516;-0.470;2023-04-26T07:48:42;101593.83;;;7.82;28.86
39954;BME280;25631;51.516;-0.470;2023-04-26T07:51:18;101596.85;;;7.82;28.77
39954;BME280;25631;51.516;-0.470;2023-04-26T07:53:55;101597.07;;;7.66;28.58
39954;BME280;25631;51.516;-0.470;2023-04-26T07:56:31;101598.49;;;8.01;28.58
39954;BME280;25631;51.516;-0.470;2023-04-26T07:59:08;101600.50;;;8.03;28.39
39954;BME280;25631;51.516;-0.470;2023-04-26T08:01:44;101605.09;;;8.02;28.15
39954;BME280;25631;51.516;-0.470;2023-04-26T08:04:29;101609.88;;;7.81;28.31
39954;BME280;25631;51.516;-0.470;2023-04-26T08:07:06;101617.33;;;8.10;27.93
39954;BME280;25631;51.516;-0.470;2023-04-26T08:09:43;101621.66;;;8.22;27.97
39954;BME280;25631;51.516;-0.470;2023-04-26T08:12:19;101617.78;;;8.34;27.93
39954;BME280;25631;51.516;-0.470;2023-04-26T08:14:56;101619.34;;;8.11;27.78
39954;BME280;25631;51.516;-0.470;2023-04-26T08:17:32;101614.83;;;7.75;27.42
39954;BME280;25631;51.516;-0.470;2023-04-26T08:20:09;101612.58;;;8.20;27.35
39954;BME280;25631;51.516;-0.470;2023-04-26T08:22:46;101616.66;;;7.95;27.08
39954;BME280;25631;51.516;-0.470;2023-04-26T08:25:23;101620.31;;;8.05;27.28
39954;BME280;25631;51.516;-0.470;2023-04-26T08:28:00;101619.75;;;8.03;27.34
39954;BME280;25631;51.516;-0.470;2023-04-26T08:31:09;101620.55;;;7.85;27.51
39954;BME280;25631;51.516;-0.470;2023-04-26T08:33:45;101618.32;;;8.08;27.53
39954;BME280;25631;51.516;-0.470;2023-04-26T08:36:21;101617.68;;;8.29;27.10
39954;BME280;25631;51.516;-0.470;2023-04-26T08:38:58;101613.17;;;8.35;27.14
39954;BME280;25631;51.516;-0.470;2023-04-26T08:41:36;101609.77;;;8.34;26.97
39954;BME280;25631;51.516;-0.470;2023-04-26T08:44:12;101609.68;;;8.28;26.75
39954;BME280;25631;51.516;-0.470;2023-04-26T08:46:55;101606.08;;;8.18;26.27
39954;BME280;25631;51.516;-0.470;2023-04-26T08:49:41;101603.80;;;8.08;26.57
39954;BME280;25631;51.516;-0.470;2023-04-26T08:52:18;101604.42;;;8.11;26.61
39954;BME280;25631;51.516;-0.470;2023-04-26T08:54:56;101604.82;;;8.03;26.61
39954;BME280;25631;51.516;-0.470;2023-04-26T08:57:34;101608.29;;;8.41;26.71
39954;BME280;25631;51.516;-0.470;2023-04-26T09:00:12;101609.59;;;7.73;26.68
39954;BME280;25631;51.516;-0.470;2023-04-26T09:02:50;101609.89;;;8.34;26.77
39954;BME280;25631;51.516;-0.470;2023-04-26T09:05:27;101611.34;;;8.18;26.69
39954;BME280;25631;51.516;-0.470;2023-04-26T09:08:04;101610.26;;;8.46;26.60
39954;BME280;25631;51.516;-0.470;2023-04-26T09:10:42;101608.55;;;8.27;26.88
39954;BME280;25631;51.516;-0.470;2023-04-26T09:13:18;101605.78;;;8.51;26.85
39954;BME280;25631;51.516;-0.470;2023-04-26T09:15:55;101606.20;;;8.52;26.85
39954;BME280;25631;51.516;-0.470;2023-04-26T09:18:31;101606.23;;;8.94;26.67
39954;BME280;25631;51.516;-0.470;2023-04-26T09:21:08;101606.82;;;8.67;26.28
39954;BME280;25631;51.516;-0.470;2023-04-26T09:23:56;101611.21;;;9.05;26.17
39954;BME280;25631;51.516;-0.470;2023-04-26T09:26:32;101610.85;;;8.92;26.24
39954;BME280;25631;51.516;-0.470;2023-04-26T09:29:13;101610.82;;;8.87;25.98
39954;BME280;25631;51.516;-0.470;2023-04-26T09:31:50;101616.41;;;8.86;26.20
39954;BME280;25631;51.516;-0.470;2023-04-26T09:34:26;101614.57;;;8.88;26.08
39954;BME280;25631;51.516;-0.470;2023-04-26T09:37:03;101607.59;;;8.98;25.90
39954;BME280;25631;51.516;-0.470;2023-04-26T09:39:40;101607.39;;;9.20;26.11
39954;BME280;25631;51.516;-0.470;2023-04-26T09:42:17;101607.40;;;9.44;26.07
39954;BME280;25631;51.516;-0.470;2023-04-26T09:44:53;101607.79;;;9.49;25.90
39954;BME280;25631;51.516;-0.470;2023-04-26T09:47:40;101606.47;;;9.34;25.50
39954;BME280;25631;51.516;-0.470;2023-04-26T09:50:26;101612.68;;;9.48;25.72
39954;BME280;25631;51.516;-0.470;2023-04-26T09:53:03;101608.43;;;9.58;25.71
39954;BME280;25631;51.516;-0.470;2023-04-26T09:55:39;101606.62;;;9.61;25.32
39954;BME280;25631;51.516;-0.470;2023-04-26T09:58:16;101604.41;;;9.55;25.26
39954;BME280;25631;51.516;-0.470;2023-04-26T10:00:53;101607.60;;;9.72;25.70
39954;BME280;25631;51.516;-0.470;2023-04-26T10:03:30;101606.19;;;10.07;25.65
39954;BME280;25631;51.516;-0.470;2023-04-26T10:06:09;101605.37;;;9.68;25.32
39954;BME280;25631;51.516;-0.470;2023-04-26T10:08:47;101602.40;;;9.73;25.36
39954;BME280;25631;51.516;-0.470;2023-04-26T10:11:23;101603.53;;;10.27;25.54
39954;BME280;25631;51.516;-0.470;2023-04-26T10:14:01;101602.18;;;9.95;25.48
39954;BME280;25631;51.516;-0.470;2023-04-26T10:16:39;101602.12;;;10.42;25.51
39954;BME280;25631;51.516;-0.470;2023-04-26T10:19:22;101599.72;;;10.66;25.48
39954;BME280;25631;51.516;-0.470;2023-04-26T10:22:03;101599.00;;;10.80;25.44
39954;BME280;25631;51.516;-0.470;2023-04-26T10:24:40;101594.68;;;10.99;25.22
39954;BME280;25631;51.516;-0.470;2023-04-26T10:27:46;101596.03;;;11.28;24.92
39954;BME280;25631;51.516;-0.470;2023-04-26T10:30:23;101594.55;;;10.82;24.76
39954;BME280;25631;51.516;-0.470;2023-04-26T10:33:18;101596.05;;;11.34;24.70
39954;BME280;25631;51.516;-0.470;2023-04-26T10:36:01;101592.00;;;10.83;24.23
39954;BME280;25631;51.516;-0.470;2023-04-26T10:38:40;101593.17;;;11.11;24.26
39954;BME280;25631;51.516;-0.470;2023-04-26T10:41:34;101588.09;;;10.85;24.07
39954;BME280;25631;51.516;-0.470;2023-04-26T10:44:43;101585.35;;;10.76;24.68
39954;BME280;25631;51.516;-0.470;2023-04-26T10:47:23;101579.96;;;10.87;24.18
39954;BME280;25631;51.516;-0.470;2023-04-26T10:50:02;101577.69;;;11.01;24.55
39954;BME280;25631;51.516;-0.470;2023-04-26T10:53:04;101576.82;;;10.95;24.81
39954;BME280;25631;51.516;-0.470;2023-04-26T10:55:41;101575.03;;;10.96;24.88
39954;BME280;25631;51.516;-0.470;2023-04-26T10:58:26;101574.78;;;11.21;25.11
39954;BME280;25631;51.516;-0.470;2023-04-26T11:01:04;101573.25;;;11.49;25.03
39954;BME280;25631;51.516;-0.470;2023-04-26T11:03:41;101565.46;;;11.56;24.76
39954;BME280;25631;51.516;-0.470;2023-04-26T11:06:18;101562.26;;;11.44;24.41
39954;BME280;25631;51.516;-0.470;2023-04-26T11:08:54;101561.55;;;11.98;24.54
39954;BME280;25631;51.516;-0.470;2023-04-26T11:11:30;101563.95;;;12.11;24.28
39954;BME280;25631;51.516;-0.470;2023-04-26T11:14:08;101565.07;;;11.76;24.36
39954;BME280;25631;51.516;-0.470;2023-04-26T11:16:45;101563.67;;;12.12;24.47
39954;BME280;25631;51.516;-0.470;2023-04-26T11:19:22;101565.16;;;12.12;23.98
39954;BME280;25631;51.516;-0.470;2023-04-26T11:21:58;101565.42;;;11.64;23.53
39954;BME280;25631;51.516;-0.470;2023-04-26T11:24:35;101566.33;;;11.44;23.78
39954;BME280;25631;51.516;-0.470;2023-04-26T11:27:11;101563.21;;;11.42;23.75
39954;BME280;25631;51.516;-0.470;2023-04-26T11:29:48;101562.98;;;11.27;23.65
39954;BME280;25631;51.516;-0.470;2023-04-26T11:32:25;101566.10;;;11.20;23.89
39954;BME280;25631;51.516;-0.470;2023-04-26T11:35:02;101567.93;;;11.35;24.08
39954;BME280;25631;51.516;-0.470;2023-04-26T11:37:38;101568.03;;;10.92;23.94
39954;BME280;25631;51.516;-0.470;2023-04-26T11:40:15;101562.46;;;10.83;23.97
39954;BME280;25631;51.516;-0.470;2023-04-26T11:42:51;101559.14;;;10.65;23.81
39954;BME280;25631;51.516;-0.470;2023-04-26T11:45:30;101553.60;;;10.56;24.03
39954;BME280;25631;51.516;-0.470;2023-04-26T11:48:09;101550.85;;;10.69;24.34
39954;BME280;25631;51.516;-0.470;2023-04-26T11:50:46;101546.27;;;10.41;24.19
39954;BME280;25631;51.516;-0.470;2023-04-26T11:53:24;101547.39;;;10.27;24.11
39954;BME280;25631;51.516;-0.470;2023-04-26T11:56:00;101550.69;;;10.66;24.07
39954;BME280;25631;51.516;-0.470;2023-04-26T11:58:37;101548.95;;;10.50;23.99
39954;BME280;25631;51.516;-0.470;2023-04-26T12:01:19;101552.30;;;10.66;24.05
39954;BME280;25631;51.516;-0.470;2023-04-26T12:03:58;101551.86;;;10.31;24.07
39954;BME280;25631;51.516;-0.470;2023-04-26T12:06:41;101556.23;;;10.75;24.08
39954;BME280;25631;51.516;-0.470;2023-04-26T12:09:22;101557.06;;;10.74;23.94
39954;BME280;25631;51.516;-0.470;2023-04-26T12:12:00;101558.46;;;10.96;24.27
39954;BME280;25631;51.516;-0.470;2023-04-26T12:14:38;101557.16;;;10.49;24.22
39954;BME280;25631;51.516;-0.470;2023-04-26T12:17:14;101555.30;;;10.79;24.24
39954;BME280;25631;51.516;-0.470;2023-04-26T12:19:51;101554.72;;;10.89;24.43
39954;BME280;25631;51.516;-0.470;2023-04-26T12:22:28;101552.11;;;10.99;24.23
39954;BME280;25631;51.516;-0.470;2023-04-26T12:25:06;101546.99;;;10.73;24.41
39954;BME280;25631;51.516;-0.470;2023-04-26T12:27:42;101544.35;;;10.66;24.47
39954;BME280;25631;51.516;-0.470;2023-04-26T12:30:19;101543.72;;;10.97;24.33
39954;BME280;25631;51.516;-0.470;2023-04-26T12:32:55;101544.46;;;10.59;24.54
39954;BME280;25631;51.516;-0.470;2023-04-26T12:35:33;101539.43;;;10.72;24.25
39954;BME280;25631;51.516;-0.470;2023-04-26T12:38:09;101538.33;;;10.87;24.29
39954;BME280;25631;51.516;-0.470;2023-04-26T12:40:46;101537.75;;;10.81;24.38
39954;BME280;25631;51.516;-0.470;2023-04-26T12:43:22;101535.10;;;10.95;24.33
39954;BME280;25631;51.516;-0.470;2023-04-26T12:45:59;101537.13;;;11.03;24.24
39954;BME280;25631;51.516;-0.470;2023-04-26T12:48:36;101541.65;;;10.97;24.33
39954;BME280;25631;51.516;-0.470;2023-04-26T12:51:13;101542.15;;;11.12;24.33
39954;BME280;25631;51.516;-0.470;2023-04-26T12:53:49;101539.38;;;10.93;24.36
39954;BME280;25631;51.516;-0.470;2023-04-26T12:56:27;101540.24;;;11.05;24.29
39954;BME280;25631;51.516;-0.470;2023-04-26T12:59:04;101540.48;;;10.97;24.34
39954;BME280;25631;51.516;-0.470;2023-04-26T13:01:40;101541.94;;;11.01;24.35
39954;BME280;25631;51.516;-0.470;2023-04-26T13:04:17;101544.12;;;11.05;24.45
39954;BME280;25631;51.516;-0.470;2023-04-26T13:06:53;101545.00;;;11.19;24.64
39954;BME280;25631;51.516;-0.470;2023-04-26T13:09:30;101546.35;;;11.13;24.34
39954;BME280;25631;51.516;-0.470;2023-04-26T13:12:06;101547.13;;;11.12;24.22
39954;BME280;25631;51.516;-0.470;2023-04-26T13:14:43;101545.65;;;10.81;24.31
39954;BME280;25631;51.516;-0.470;2023-04-26T13:17:22;101546.64;;;10.77;24.32
39954;BME280;25631;51.516;-0.470;2023-04-26T13:19:59;101547.02;;;11.04;24.20
39954;BME280;25631;51.516;-0.470;2023-04-26T13:22:36;101550.06;;;11.23;24.15
39954;BME280;25631;51.516;-0.470;2023-04-26T13:25:12;101550.96;;;11.30;24.28
39954;BME280;25631;51.516;-0.470;2023-04-26T13:27:49;101554.09;;;10.93;24.26
39954;BME280;25631;51.516;-0.470;2023-04-26T13:30:26;101548.02;;;11.09;24.31
39954;BME280;25631;51.516;-0.470;2023-04-26T13:33:02;101542.83;;;11.32;24.31
39954;BME280;25631;51.516;-0.470;2023-04-26T13:35:38;101541.89;;;11.15;24.00
39954;BME280;25631;51.516;-0.470;2023-04-26T13:38:15;101538.96;;;11.25;24.20
39954;BME280;25631;51.516;-0.470;2023-04-26T13:40:51;101533.86;;;11.60;24.25